首页
METAR-TAF:

METAR-TAF

机场 :

麦迪逊, 威斯康辛州, 美国

纬度: 43-08-26N, 经度: 089-20-43W, 海拔: 262米

当前天气观测

该预报发布于18分钟前的08:12 UTC
静风
温度 17°C
湿度 94%
气压 1015 hPa
能見度: 6.4公里
阴天层高于3200英尺
轻雾

METAR: KMSN 190812Z AUTO 00000KT 4SM BR OVC032 17/16 A2996 RMK AO2 T01670156

时间: 03:30 (08:30 UTC)

预报

该预报发布于1小时和7分钟前的07:23 UTC
预报有效从19日的 07点(UTC)到 20日的 06点(UTC)
风速3节,风向西南
能見度: 10公里
少量云层高于25000英尺
短暂存在
从 19日的 07点(UTC)到 19日的 11点(UTC)
能見度: 6.4公里
轻雾
从 19日的 1100点(UTC)
风速3节,风向多变
能見度: 9.7公里
天空无云
轻雾
从 19日的 1300点(UTC)
风速3节,风向多变
能見度: 10公里
少量云层高于5000英尺

TAF: KMSN 190723Z 1907/2006 23003KT P6SM FEW250 TEMPO 1907/1911 4SM BR FM191100 VRB03KT 6SM BR SKC FM191300 VRB03KT P6SM FEW050

超过4000个机场的气象观测和天气预报(METAR&TAF报告)。

可查询的气象台以黄色和红色小点在地图上表示。

将鼠标移到小点上方,可查看气象台名称。

然后点击查看天气观测和预报。

如需切换地图:点击带黑十字的绿色按钮放大地图;点击带横线的绿色按钮缩小地图;或者点击绿色箭头查看邻近地区的地图。


METAR-TAF: